Terminal Aerodrome Forecast
Issued by NWS

Home | Current Version | Previous Version | Text Only | Print | Product List | Glossary On
Versions: 1 2 3 4 5 6 7 8 9 10 11 12 13 14 15 16 17
000
FTUS46 KMFR 222343
TAFOTH
TAF
KOTH 222343Z 2300/2324 27011KT P6SM VCSH SCT025 BKN050
     FM230600 15005KT P6SM BKN025 OVC050
     FM231200 15005KT P6SM SCT025 BKN050 OVC150
     FM232100 17012G18KT P6SM -RA BKN035 OVC050 WS020/18045KT=

USA.gov is the U.S. government's official web portal to all federal, state and local government web resources and services.